sensor_id;sensor_type;location;lat;lon;timestamp;pressure;altitude;pressure_sealevel;temperature;humidity
27613;BME280;15036;48.094;-1.690;2023-03-15T00:00:59;101220.78;;;11.78;52.54
27613;BME280;15036;48.094;-1.690;2023-03-15T00:03:25;101227.00;;;11.86;51.99
27613;BME280;15036;48.094;-1.690;2023-03-15T00:05:50;101229.72;;;11.86;52.13
27613;BME280;15036;48.094;-1.690;2023-03-15T00:08:18;101224.19;;;11.80;52.36
27613;BME280;15036;48.094;-1.690;2023-03-15T00:10:45;101219.94;;;11.77;52.47
27613;BME280;15036;48.094;-1.690;2023-03-15T00:13:11;101216.03;;;11.86;52.20
27613;BME280;15036;48.094;-1.690;2023-03-15T00:15:43;101216.19;;;11.78;52.27
27613;BME280;15036;48.094;-1.690;2023-03-15T00:18:08;101212.13;;;11.74;52.34
27613;BME280;15036;48.094;-1.690;2023-03-15T00:20:33;101206.84;;;11.73;52.74
27613;BME280;15036;48.094;-1.690;2023-03-15T00:23:00;101198.63;;;11.73;52.82
27613;BME280;15036;48.094;-1.690;2023-03-15T00:25:26;101202.03;;;11.75;52.47
27613;BME280;15036;48.094;-1.690;2023-03-15T00:27:51;101200.06;;;11.69;52.59
27613;BME280;15036;48.094;-1.690;2023-03-15T00:30:16;101197.81;;;11.72;52.58
27613;BME280;15036;48.094;-1.690;2023-03-15T00:32:41;101203.72;;;11.76;52.36
27613;BME280;15036;48.094;-1.690;2023-03-15T00:35:08;101206.38;;;11.69;52.69
27613;BME280;15036;48.094;-1.690;2023-03-15T00:37:34;101196.31;;;11.70;52.59
27613;BME280;15036;48.094;-1.690;2023-03-15T00:39:59;101206.19;;;11.71;52.87
27613;BME280;15036;48.094;-1.690;2023-03-15T00:42:24;101205.25;;;11.64;52.90
27613;BME280;15036;48.094;-1.690;2023-03-15T00:44:52;101202.72;;;11.62;53.22
27613;BME280;15036;48.094;-1.690;2023-03-15T00:47:18;101206.78;;;11.66;52.97
27613;BME280;15036;48.094;-1.690;2023-03-15T00:49:44;101198.38;;;11.68;53.00
27613;BME280;15036;48.094;-1.690;2023-03-15T00:52:10;101198.84;;;11.71;52.87
27613;BME280;15036;48.094;-1.690;2023-03-15T00:54:36;101196.09;;;11.71;53.17
27613;BME280;15036;48.094;-1.690;2023-03-15T00:57:02;101202.44;;;11.72;52.93
27613;BME280;15036;48.094;-1.690;2023-03-15T00:59:27;101202.72;;;11.62;53.31
27613;BME280;15036;48.094;-1.690;2023-03-15T01:01:53;101203.22;;;11.66;53.22
27613;BME280;15036;48.094;-1.690;2023-03-15T01:04:20;101203.16;;;11.80;52.84
27613;BME280;15036;48.094;-1.690;2023-03-15T01:06:45;101221.16;;;11.75;52.94
27613;BME280;15036;48.094;-1.690;2023-03-15T01:09:10;101212.19;;;11.81;52.95
27613;BME280;15036;48.094;-1.690;2023-03-15T01:11:36;101218.44;;;11.75;52.87
27613;BME280;15036;48.094;-1.690;2023-03-15T01:14:01;101225.75;;;11.68;52.82
27613;BME280;15036;48.094;-1.690;2023-03-15T01:16:29;101219.09;;;11.77;52.85
27613;BME280;15036;48.094;-1.690;2023-03-15T01:18:54;101221.00;;;11.76;52.99
27613;BME280;15036;48.094;-1.690;2023-03-15T01:21:20;101233.63;;;11.63;53.00
27613;BME280;15036;48.094;-1.690;2023-03-15T01:23:46;101232.72;;;11.56;53.03
27613;BME280;15036;48.094;-1.690;2023-03-15T01:26:12;101239.28;;;11.76;53.00
27613;BME280;15036;48.094;-1.690;2023-03-15T01:28:37;101231.00;;;11.69;53.15
27613;BME280;15036;48.094;-1.690;2023-03-15T01:31:03;101230.03;;;11.41;53.68
27613;BME280;15036;48.094;-1.690;2023-03-15T01:33:29;101225.03;;;11.45;53.97
27613;BME280;15036;48.094;-1.690;2023-03-15T01:36:02;101231.41;;;11.66;53.44
27613;BME280;15036;48.094;-1.690;2023-03-15T01:38:27;101228.03;;;11.50;53.36
27613;BME280;15036;48.094;-1.690;2023-03-15T01:40:53;101220.13;;;11.76;53.20
27613;BME280;15036;48.094;-1.690;2023-03-15T01:43:19;101232.31;;;11.73;53.52
27613;BME280;15036;48.094;-1.690;2023-03-15T01:50:53;101238.56;;;11.67;53.48
27613;BME280;15036;48.094;-1.690;2023-03-15T01:53:20;101241.09;;;11.69;53.49
27613;BME280;15036;48.094;-1.690;2023-03-15T01:55:46;101245.94;;;11.52;53.87
27613;BME280;15036;48.094;-1.690;2023-03-15T01:58:11;101233.56;;;11.56;53.82
27613;BME280;15036;48.094;-1.690;2023-03-15T02:00:37;101230.84;;;11.56;53.96
27613;BME280;15036;48.094;-1.690;2023-03-15T02:05:29;101230.72;;;11.64;53.56
27613;BME280;15036;48.094;-1.690;2023-03-15T02:07:56;101226.19;;;11.71;53.53
27613;BME280;15036;48.094;-1.690;2023-03-15T02:10:24;101228.16;;;11.77;53.60
27613;BME280;15036;48.094;-1.690;2023-03-15T02:12:51;101232.53;;;11.57;53.70
27613;BME280;15036;48.094;-1.690;2023-03-15T02:15:17;101230.34;;;11.67;53.38
27613;BME280;15036;48.094;-1.690;2023-03-15T02:17:44;101229.66;;;11.44;53.82
27613;BME280;15036;48.094;-1.690;2023-03-15T02:20:12;101232.38;;;11.44;53.75
27613;BME280;15036;48.094;-1.690;2023-03-15T02:23:25;101236.16;;;11.43;53.80
27613;BME280;15036;48.094;-1.690;2023-03-15T02:28:10;101230.56;;;11.51;53.77
27613;BME280;15036;48.094;-1.690;2023-03-15T02:30:36;101237.97;;;11.72;53.19
27613;BME280;15036;48.094;-1.690;2023-03-15T02:33:02;101233.56;;;11.56;53.62
27613;BME280;15036;48.094;-1.690;2023-03-15T02:35:29;101232.16;;;11.60;53.56
27613;BME280;15036;48.094;-1.690;2023-03-15T02:37:56;101230.00;;;11.56;53.59
27613;BME280;15036;48.094;-1.690;2023-03-15T02:40:22;101234.44;;;11.57;53.32
27613;BME280;15036;48.094;-1.690;2023-03-15T02:42:54;101231.63;;;11.50;53.65
27613;BME280;15036;48.094;-1.690;2023-03-15T02:45:20;101230.31;;;11.46;53.83
27613;BME280;15036;48.094;-1.690;2023-03-15T02:47:46;101233.25;;;11.45;53.75
27613;BME280;15036;48.094;-1.690;2023-03-15T02:50:12;101236.16;;;11.43;53.98
27613;BME280;15036;48.094;-1.690;2023-03-15T02:52:37;101232.97;;;11.40;53.75
27613;BME280;15036;48.094;-1.690;2023-03-15T02:55:03;101232.97;;;11.40;53.83
27613;BME280;15036;48.094;-1.690;2023-03-15T02:57:28;101234.84;;;11.39;53.73
27613;BME280;15036;48.094;-1.690;2023-03-15T02:59:53;101221.81;;;11.41;53.95
27613;BME280;15036;48.094;-1.690;2023-03-15T03:02:19;101226.06;;;11.44;53.88
27613;BME280;15036;48.094;-1.690;2023-03-15T03:04:45;101213.44;;;11.43;53.87
27613;BME280;15036;48.094;-1.690;2023-03-15T03:07:10;101210.88;;;11.41;53.88
27613;BME280;15036;48.094;-1.690;2023-03-15T03:09:35;101221.78;;;11.34;53.92
27613;BME280;15036;48.094;-1.690;2023-03-15T03:12:01;101220.16;;;11.40;53.79
27613;BME280;15036;48.094;-1.690;2023-03-15T03:14:26;101219.03;;;11.34;53.88
27613;BME280;15036;48.094;-1.690;2023-03-15T03:16:51;101216.97;;;11.37;53.77
27613;BME280;15036;48.094;-1.690;2023-03-15T03:19:16;101210.84;;;11.34;53.89
27613;BME280;15036;48.094;-1.690;2023-03-15T03:21:42;101211.19;;;11.31;53.98
27613;BME280;15036;48.094;-1.690;2023-03-15T03:24:07;101214.13;;;11.30;53.83
27613;BME280;15036;48.094;-1.690;2023-03-15T03:26:33;101213.94;;;11.31;53.88
27613;BME280;15036;48.094;-1.690;2023-03-15T03:28:58;101212.06;;;11.32;54.01
27613;BME280;15036;48.094;-1.690;2023-03-15T03:31:25;101214.50;;;11.27;54.08
27613;BME280;15036;48.094;-1.690;2023-03-15T03:33:51;101213.22;;;11.23;54.40
27613;BME280;15036;48.094;-1.690;2023-03-15T03:36:16;101202.75;;;11.26;54.31
27613;BME280;15036;48.094;-1.690;2023-03-15T03:38:42;101209.03;;;11.27;54.18
27613;BME280;15036;48.094;-1.690;2023-03-15T03:41:08;101203.97;;;11.24;54.24
27613;BME280;15036;48.094;-1.690;2023-03-15T03:43:34;101197.00;;;11.21;54.26
27613;BME280;15036;48.094;-1.690;2023-03-15T03:46:00;101196.19;;;11.21;54.19
27613;BME280;15036;48.094;-1.690;2023-03-15T03:48:25;101192.16;;;11.02;54.61
27613;BME280;15036;48.094;-1.690;2023-03-15T03:50:50;101188.25;;;11.11;54.47
27613;BME280;15036;48.094;-1.690;2023-03-15T03:53:16;101187.59;;;11.09;54.13
27613;BME280;15036;48.094;-1.690;2023-03-15T03:55:41;101198.72;;;11.08;54.58
27613;BME280;15036;48.094;-1.690;2023-03-15T03:58:07;101191.66;;;11.13;54.69
27613;BME280;15036;48.094;-1.690;2023-03-15T04:00:32;101195.81;;;11.09;54.86
27613;BME280;15036;48.094;-1.690;2023-03-15T04:02:57;101193.28;;;11.08;54.90
27613;BME280;15036;48.094;-1.690;2023-03-15T04:05:22;101194.47;;;11.05;54.89
27613;BME280;15036;48.094;-1.690;2023-03-15T04:07:47;101178.09;;;11.05;54.78
27613;BME280;15036;48.094;-1.690;2023-03-15T04:10:13;101181.69;;;11.06;54.84
27613;BME280;15036;48.094;-1.690;2023-03-15T04:12:40;101174.53;;;11.05;54.58
27613;BME280;15036;48.094;-1.690;2023-03-15T04:15:05;101174.25;;;11.00;54.37
27613;BME280;15036;48.094;-1.690;2023-03-15T04:17:31;101176.72;;;10.95;54.33
27613;BME280;15036;48.094;-1.690;2023-03-15T04:19:56;101171.16;;;10.88;54.53
27613;BME280;15036;48.094;-1.690;2023-03-15T04:22:23;101171.16;;;10.88;54.73
27613;BME280;15036;48.094;-1.690;2023-03-15T04:24:48;101177.03;;;10.85;54.79
27613;BME280;15036;48.094;-1.690;2023-03-15T04:27:15;101172.38;;;10.86;54.92
27613;BME280;15036;48.094;-1.690;2023-03-15T04:29:40;101174.09;;;10.87;54.99
27613;BME280;15036;48.094;-1.690;2023-03-15T04:32:07;101183.06;;;10.81;54.96
27613;BME280;15036;48.094;-1.690;2023-03-15T04:34:33;101180.31;;;10.81;55.08
27613;BME280;15036;48.094;-1.690;2023-03-15T04:37:03;101185.13;;;10.79;55.07
27613;BME280;15036;48.094;-1.690;2023-03-15T04:39:28;101191.25;;;10.81;55.09
27613;BME280;15036;48.094;-1.690;2023-03-15T04:41:53;101191.16;;;10.89;54.76
27613;BME280;15036;48.094;-1.690;2023-03-15T04:44:19;101204.59;;;10.76;55.15
27613;BME280;15036;48.094;-1.690;2023-03-15T04:46:44;101205.34;;;10.70;55.45
27613;BME280;15036;48.094;-1.690;2023-03-15T04:49:10;101211.78;;;10.77;55.41
27613;BME280;15036;48.094;-1.690;2023-03-15T04:51:35;101217.16;;;10.85;55.08
27613;BME280;15036;48.094;-1.690;2023-03-15T04:54:00;101219.00;;;10.84;55.16
27613;BME280;15036;48.094;-1.690;2023-03-15T04:56:26;101221.75;;;10.84;55.21
27613;BME280;15036;48.094;-1.690;2023-03-15T04:58:52;101226.09;;;10.79;55.23
27613;BME280;15036;48.094;-1.690;2023-03-15T05:01:17;101227.50;;;10.75;55.41
27613;BME280;15036;48.094;-1.690;2023-03-15T05:03:42;101232.22;;;10.81;55.18
27613;BME280;15036;48.094;-1.690;2023-03-15T05:06:08;101234.00;;;10.88;55.25
27613;BME280;15036;48.094;-1.690;2023-03-15T05:08:33;101229.28;;;10.97;54.80
27613;BME280;15036;48.094;-1.690;2023-03-15T05:11:00;101236.25;;;10.85;55.15
27613;BME280;15036;48.094;-1.690;2023-03-15T05:13:25;101237.38;;;10.76;55.31
27613;BME280;15036;48.094;-1.690;2023-03-15T05:15:50;101230.41;;;10.88;55.18
27613;BME280;15036;48.094;-1.690;2023-03-15T05:18:16;101236.72;;;11.03;54.71
27613;BME280;15036;48.094;-1.690;2023-03-15T05:20:41;101235.88;;;10.88;55.24
27613;BME280;15036;48.094;-1.690;2023-03-15T05:23:06;101236.91;;;10.87;55.10
27613;BME280;15036;48.094;-1.690;2023-03-15T05:25:32;101232.47;;;10.86;55.09
27613;BME280;15036;48.094;-1.690;2023-03-15T05:27:58;101226.66;;;10.89;55.00
27613;BME280;15036;48.094;-1.690;2023-03-15T05:30:23;101239.91;;;10.92;54.96
27613;BME280;15036;48.094;-1.690;2023-03-15T05:32:48;101242.84;;;10.90;55.09
27613;BME280;15036;48.094;-1.690;2023-03-15T05:35:13;101251.69;;;10.92;54.84
27613;BME280;15036;48.094;-1.690;2023-03-15T05:37:39;101243.41;;;10.86;54.92
27613;BME280;15036;48.094;-1.690;2023-03-15T05:40:04;101244.53;;;10.62;55.45
27613;BME280;15036;48.094;-1.690;2023-03-15T05:42:32;101240.59;;;10.65;55.34
27613;BME280;15036;48.094;-1.690;2023-03-15T05:44:57;101244.72;;;10.61;55.48
27613;BME280;15036;48.094;-1.690;2023-03-15T05:47:23;101249.25;;;10.68;55.22
27613;BME280;15036;48.094;-1.690;2023-03-15T05:49:48;101257.25;;;10.70;55.18
27613;BME280;15036;48.094;-1.690;2023-03-15T05:52:14;101256.09;;;10.64;55.42
27613;BME280;15036;48.094;-1.690;2023-03-15T05:54:39;101247.72;;;10.66;55.29
27613;BME280;15036;48.094;-1.690;2023-03-15T05:57:05;101256.31;;;10.63;55.37
27613;BME280;15036;48.094;-1.690;2023-03-15T05:59:30;101255.72;;;10.53;55.54
27613;BME280;15036;48.094;-1.690;2023-03-15T06:01:55;101252.25;;;10.59;55.55
27613;BME280;15036;48.094;-1.690;2023-03-15T06:04:21;101257.72;;;10.59;55.30
27613;BME280;15036;48.094;-1.690;2023-03-15T06:06:46;101256.03;;;10.58;55.22
27613;BME280;15036;48.094;-1.690;2023-03-15T06:09:11;101247.44;;;10.46;55.59
27613;BME280;15036;48.094;-1.690;2023-03-15T06:11:36;101248.59;;;10.52;55.36
27613;BME280;15036;48.094;-1.690;2023-03-15T06:14:02;101238.22;;;10.47;55.34
27613;BME280;15036;48.094;-1.690;2023-03-15T06:16:27;101238.88;;;10.49;55.50
27613;BME280;15036;48.094;-1.690;2023-03-15T06:18:52;101228.59;;;10.36;55.79
27613;BME280;15036;48.094;-1.690;2023-03-15T06:21:17;101232.47;;;10.42;55.74
27613;BME280;15036;48.094;-1.690;2023-03-15T06:23:42;101231.63;;;10.41;55.72
27613;BME280;15036;48.094;-1.690;2023-03-15T06:26:08;101234.66;;;10.61;55.27
27613;BME280;15036;48.094;-1.690;2023-03-15T06:28:33;101224.50;;;10.55;55.11
27613;BME280;15036;48.094;-1.690;2023-03-15T06:31:03;101227.84;;;10.42;55.30
27613;BME280;15036;48.094;-1.690;2023-03-15T06:33:28;101219.56;;;10.36;55.71
27613;BME280;15036;48.094;-1.690;2023-03-15T06:35:53;101212.88;;;10.38;55.60
27613;BME280;15036;48.094;-1.690;2023-03-15T06:38:18;101226.44;;;10.46;55.40
27613;BME280;15036;48.094;-1.690;2023-03-15T06:40:44;101227.19;;;10.40;55.65
27613;BME280;15036;48.094;-1.690;2023-03-15T06:43:09;101227.31;;;10.47;55.35
27613;BME280;15036;48.094;-1.690;2023-03-15T06:45:42;101219.66;;;10.42;55.51
27613;BME280;15036;48.094;-1.690;2023-03-15T06:48:07;101231.63;;;10.41;55.45
27613;BME280;15036;48.094;-1.690;2023-03-15T06:50:32;101228.50;;;10.44;55.42
27613;BME280;15036;48.094;-1.690;2023-03-15T06:52:57;101233.44;;;10.49;55.08
27613;BME280;15036;48.094;-1.690;2023-03-15T06:55:23;101241.69;;;10.41;55.23
27613;BME280;15036;48.094;-1.690;2023-03-15T06:57:49;101247.50;;;10.38;55.48
27613;BME280;15036;48.094;-1.690;2023-03-15T07:00:14;101241.88;;;10.39;55.44
27613;BME280;15036;48.094;-1.690;2023-03-15T07:02:41;101239.16;;;10.39;55.44
27613;BME280;15036;48.094;-1.690;2023-03-15T07:05:06;101245.44;;;10.40;55.84
27613;BME280;15036;48.094;-1.690;2023-03-15T07:07:32;101248.38;;;10.38;56.03
27613;BME280;15036;48.094;-1.690;2023-03-15T07:09:57;101254.59;;;10.47;55.91
27613;BME280;15036;48.094;-1.690;2023-03-15T07:12:22;101257.44;;;10.68;55.53
27613;BME280;15036;48.094;-1.690;2023-03-15T07:14:47;101253.78;;;10.61;55.73
27613;BME280;15036;48.094;-1.690;2023-03-15T07:17:13;101259.16;;;10.69;55.80
27613;BME280;15036;48.094;-1.690;2023-03-15T07:19:38;101256.97;;;10.94;55.18
27613;BME280;15036;48.094;-1.690;2023-03-15T07:22:04;101254.44;;;10.92;55.36
27613;BME280;15036;48.094;-1.690;2023-03-15T07:24:29;101249.06;;;10.99;55.31
27613;BME280;15036;48.094;-1.690;2023-03-15T07:26:54;101259.78;;;11.00;55.19
27613;BME280;15036;48.094;-1.690;2023-03-15T07:29:21;101266.81;;;11.24;54.57
27613;BME280;15036;48.094;-1.690;2023-03-15T07:31:46;101269.00;;;11.14;55.08
27613;BME280;15036;48.094;-1.690;2023-03-15T07:34:12;101261.47;;;11.16;55.10
27613;BME280;15036;48.094;-1.690;2023-03-15T07:36:38;101260.50;;;11.23;54.94
27613;BME280;15036;48.094;-1.690;2023-03-15T07:39:03;101266.81;;;11.39;54.70
27613;BME280;15036;48.094;-1.690;2023-03-15T07:41:28;101266.88;;;11.45;54.27
27613;BME280;15036;48.094;-1.690;2023-03-15T07:43:54;101274.53;;;11.35;54.16
27613;BME280;15036;48.094;-1.690;2023-03-15T07:46:19;101277.81;;;11.45;54.13
27613;BME280;15036;48.094;-1.690;2023-03-15T07:48:44;101273.19;;;11.46;54.10
27613;BME280;15036;48.094;-1.690;2023-03-15T07:51:10;101266.09;;;11.51;53.97
27613;BME280;15036;48.094;-1.690;2023-03-15T07:53:35;101271.00;;;11.56;53.86
27613;BME280;15036;48.094;-1.690;2023-03-15T07:56:01;101270.16;;;11.55;53.88
27613;BME280;15036;48.094;-1.690;2023-03-15T07:58:26;101265.22;;;11.65;53.77
27613;BME280;15036;48.094;-1.690;2023-03-15T08:04:55;101267.56;;;11.32;56.09
27613;BME280;15036;48.094;-1.690;2023-03-15T08:07:21;101258.34;;;11.69;55.05
27613;BME280;15036;48.094;-1.690;2023-03-15T08:09:46;101251.94;;;11.98;53.97
27613;BME280;15036;48.094;-1.690;2023-03-15T08:12:12;101252.91;;;12.11;54.04
27613;BME280;15036;48.094;-1.690;2023-03-15T08:14:38;101256.53;;;12.18;53.86
27613;BME280;15036;48.094;-1.690;2023-03-15T08:17:03;101264.38;;;12.28;53.34
27613;BME280;15036;48.094;-1.690;2023-03-15T08:19:28;101261.56;;;12.43;53.00
27613;BME280;15036;48.094;-1.690;2023-03-15T08:21:54;101257.94;;;12.63;52.57
27613;BME280;15036;48.094;-1.690;2023-03-15T08:24:20;101253.78;;;12.74;52.15
27613;BME280;15036;48.094;-1.690;2023-03-15T08:26:46;101259.84;;;12.97;51.42
27613;BME280;15036;48.094;-1.690;2023-03-15T08:29:12;101255.78;;;12.86;52.09
27613;BME280;15036;48.094;-1.690;2023-03-15T08:31:37;101246.78;;;12.99;51.27
27613;BME280;15036;48.094;-1.690;2023-03-15T08:34:02;101252.34;;;13.12;51.36
27613;BME280;15036;48.094;-1.690;2023-03-15T08:36:28;101252.41;;;13.25;51.17
27613;BME280;15036;48.094;-1.690;2023-03-15T08:38:53;101261.31;;;13.34;51.04
27613;BME280;15036;48.094;-1.690;2023-03-15T08:41:19;101256.75;;;13.54;50.61
27613;BME280;15036;48.094;-1.690;2023-03-15T08:43:44;101255.03;;;13.46;50.83
27613;BME280;15036;48.094;-1.690;2023-03-15T08:46:09;101250.81;;;13.44;50.60
27613;BME280;15036;48.094;-1.690;2023-03-15T08:48:35;101254.06;;;13.13;51.31
27613;BME280;15036;48.094;-1.690;2023-03-15T08:51:02;101244.44;;;13.30;50.95
27613;BME280;15036;48.094;-1.690;2023-03-15T08:53:28;101256.63;;;13.28;51.36
27613;BME280;15036;48.094;-1.690;2023-03-15T08:55:55;101256.84;;;13.26;51.69
27613;BME280;15036;48.094;-1.690;2023-03-15T08:58:20;101248.28;;;13.42;51.47
27613;BME280;15036;48.094;-1.690;2023-03-15T09:00:47;101257.09;;;13.38;51.76
27613;BME280;15036;48.094;-1.690;2023-03-15T09:03:13;101254.44;;;13.57;51.37
27613;BME280;15036;48.094;-1.690;2023-03-15T09:05:40;101254.66;;;13.56;51.65
27613;BME280;15036;48.094;-1.690;2023-03-15T09:08:05;101250.69;;;13.84;50.77
27613;BME280;15036;48.094;-1.690;2023-03-15T09:10:31;101240.38;;;14.00;50.75
27613;BME280;15036;48.094;-1.690;2023-03-15T09:12:58;101256.41;;;13.83;50.62
27613;BME280;15036;48.094;-1.690;2023-03-15T09:15:24;101262.34;;;14.13;50.07
27613;BME280;15036;48.094;-1.690;2023-03-15T09:17:49;101261.50;;;14.06;50.38
27613;BME280;15036;48.094;-1.690;2023-03-15T09:20:15;101260.06;;;14.16;49.81
27613;BME280;15036;48.094;-1.690;2023-03-15T09:22:48;101266.63;;;14.41;49.45
27613;BME280;15036;48.094;-1.690;2023-03-15T09:25:14;101257.31;;;14.42;49.23
27613;BME280;15036;48.094;-1.690;2023-03-15T09:27:39;101260.94;;;14.49;48.86
27613;BME280;15036;48.094;-1.690;2023-03-15T09:30:05;101259.00;;;14.30;49.38
27613;BME280;15036;48.094;-1.690;2023-03-15T09:32:31;101258.78;;;14.77;48.45
27613;BME280;15036;48.094;-1.690;2023-03-15T09:35:01;101270.63;;;14.52;48.59
27613;BME280;15036;48.094;-1.690;2023-03-15T09:37:27;101264.91;;;14.66;48.20
27613;BME280;15036;48.094;-1.690;2023-03-15T09:39:53;101255.41;;;14.75;48.37
27613;BME280;15036;48.094;-1.690;2023-03-15T09:42:24;101264.25;;;14.84;47.89
27613;BME280;15036;48.094;-1.690;2023-03-15T09:45:17;101284.56;;;14.70;48.21
27613;BME280;15036;48.094;-1.690;2023-03-15T09:50:28;101280.41;;;15.38;46.48
27613;BME280;15036;48.094;-1.690;2023-03-15T09:53:32;101281.38;;;15.63;45.50
27613;BME280;15036;48.094;-1.690;2023-03-15T09:56:02;101274.84;;;15.57;45.23
27613;BME280;15036;48.094;-1.690;2023-03-15T09:58:31;101276.84;;;15.82;45.07
27613;BME280;15036;48.094;-1.690;2023-03-15T10:01:02;101279.94;;;15.92;44.19
27613;BME280;15036;48.094;-1.690;2023-03-15T10:03:48;101266.53;;;15.71;45.02
27613;BME280;15036;48.094;-1.690;2023-03-15T10:06:20;101258.41;;;16.13;44.28
27613;BME280;15036;48.094;-1.690;2023-03-15T10:08:54;101257.25;;;16.27;43.38
27613;BME280;15036;48.094;-1.690;2023-03-15T10:15:18;101255.97;;;16.79;43.05
27613;BME280;15036;48.094;-1.690;2023-03-15T10:17:14;101268.84;;;17.21;42.58
27613;BME280;15036;48.094;-1.690;2023-03-15T10:19:48;101266.91;;;17.04;41.42
27613;BME280;15036;48.094;-1.690;2023-03-15T10:22:39;101271.75;;;16.90;41.03
27613;BME280;15036;48.094;-1.690;2023-03-15T10:25:19;101271.94;;;16.71;41.06
27613;BME280;15036;48.094;-1.690;2023-03-15T10:28:07;101274.06;;;17.11;40.94
27613;BME280;15036;48.094;-1.690;2023-03-15T10:30:36;101282.78;;;16.90;40.83
27613;BME280;15036;48.094;-1.690;2023-03-15T10:35:56;101283.38;;;16.50;41.81
27613;BME280;15036;48.094;-1.690;2023-03-15T10:38:23;101280.09;;;16.59;42.19
27613;BME280;15036;48.094;-1.690;2023-03-15T10:43:23;101263.31;;;16.85;40.65
27613;BME280;15036;48.094;-1.690;2023-03-15T10:48:38;101263.31;;;17.21;40.40
27613;BME280;15036;48.094;-1.690;2023-03-15T10:51:19;101276.16;;;16.73;40.36
27613;BME280;15036;48.094;-1.690;2023-03-15T10:54:05;101269.91;;;16.84;40.66
27613;BME280;15036;48.094;-1.690;2023-03-15T10:56:35;101258.19;;;16.89;40.85
27613;BME280;15036;48.094;-1.690;2023-03-15T10:59:02;101255.16;;;17.33;40.50
27613;BME280;15036;48.094;-1.690;2023-03-15T11:01:30;101264.25;;;17.52;40.11
27613;BME280;15036;48.094;-1.690;2023-03-15T11:04:15;101247.63;;;17.40;40.36
27613;BME280;15036;48.094;-1.690;2023-03-15T11:07:00;101245.09;;;17.39;40.34
27613;BME280;15036;48.094;-1.690;2023-03-15T11:09:40;101243.41;;;17.56;40.17
27613;BME280;15036;48.094;-1.690;2023-03-15T11:12:30;101238.25;;;17.59;39.30
27613;BME280;15036;48.094;-1.690;2023-03-15T11:15:10;101236.81;;;17.39;38.82
27613;BME280;15036;48.094;-1.690;2023-03-15T11:17:44;101234.78;;;17.46;39.15
27613;BME280;15036;48.094;-1.690;2023-03-15T11:22:58;101226.75;;;18.45;37.50
27613;BME280;15036;48.094;-1.690;2023-03-15T11:25:29;101226.75;;;18.45;37.64
27613;BME280;15036;48.094;-1.690;2023-03-15T11:27:58;101215.69;;;18.45;36.83
27613;BME280;15036;48.094;-1.690;2023-03-15T11:30:30;101218.00;;;18.59;36.85
27613;BME280;15036;48.094;-1.690;2023-03-15T11:33:04;101209.69;;;18.71;37.17
27613;BME280;15036;48.094;-1.690;2023-03-15T11:35:39;101223.47;;;19.05;36.90
27613;BME280;15036;48.094;-1.690;2023-03-15T11:38:36;101219.63;;;19.07;36.74
27613;BME280;15036;48.094;-1.690;2023-03-15T11:41:37;101216.31;;;18.81;36.67
27613;BME280;15036;48.094;-1.690;2023-03-15T11:44:32;101202.06;;;19.13;36.34
27613;BME280;15036;48.094;-1.690;2023-03-15T11:47:13;101205.94;;;18.88;36.67
27613;BME280;15036;48.094;-1.690;2023-03-15T11:49:50;101196.81;;;18.53;37.29
27613;BME280;15036;48.094;-1.690;2023-03-15T11:52:19;101204.44;;;19.21;36.78
27613;BME280;15036;48.094;-1.690;2023-03-15T11:54:45;101198.50;;;19.40;36.26
27613;BME280;15036;48.094;-1.690;2023-03-15T11:57:46;101194.44;;;19.31;36.66
27613;BME280;15036;48.094;-1.690;2023-03-15T12:02:52;101194.91;;;19.28;36.93
27613;BME280;15036;48.094;-1.690;2023-03-15T12:05:48;101188.56;;;19.16;36.93
27613;BME280;15036;48.094;-1.690;2023-03-15T12:10:47;101175.03;;;18.68;37.73
27613;BME280;15036;48.094;-1.690;2023-03-15T12:13:25;101174.19;;;18.68;37.79
27613;BME280;15036;48.094;-1.690;2023-03-15T12:15:52;101182.50;;;19.31;37.51
27613;BME280;15036;48.094;-1.690;2023-03-15T12:18:21;101179.59;;;19.37;36.99
27613;BME280;15036;48.094;-1.690;2023-03-15T12:20:51;101175.22;;;19.53;36.97
27613;BME280;15036;48.094;-1.690;2023-03-15T12:23:30;101163.38;;;19.57;36.29
27613;BME280;15036;48.094;-1.690;2023-03-15T12:28:39;101142.78;;;20.15;36.29
27613;BME280;15036;48.094;-1.690;2023-03-15T12:31:08;101148.09;;;20.16;36.10
27613;BME280;15036;48.094;-1.690;2023-03-15T12:33:49;101140.22;;;20.80;35.26
27613;BME280;15036;48.094;-1.690;2023-03-15T12:36:35;101126.75;;;20.50;35.79
27613;BME280;15036;48.094;-1.690;2023-03-15T12:39:34;101126.97;;;20.65;35.35
27613;BME280;15036;48.094;-1.690;2023-03-15T12:42:03;101111.66;;;20.24;35.62
27613;BME280;15036;48.094;-1.690;2023-03-15T12:46:58;101107.66;;;20.53;36.18
27613;BME280;15036;48.094;-1.690;2023-03-15T12:54:54;101120.28;;;20.11;36.22
27613;BME280;15036;48.094;-1.690;2023-03-15T12:57:27;101125.00;;;19.94;36.44
27613;BME280;15036;48.094;-1.690;2023-03-15T13:00:05;101140.13;;;20.74;35.66
27613;BME280;15036;48.094;-1.690;2023-03-15T13:02:37;101135.09;;;20.71;35.37
27613;BME280;15036;48.094;-1.690;2023-03-15T13:10:33;101133.47;;;20.54;35.26
27613;BME280;15036;48.094;-1.690;2023-03-15T13:13:35;101125.63;;;20.67;34.88
27613;BME280;15036;48.094;-1.690;2023-03-15T13:18:57;101117.09;;;20.96;34.50
27613;BME280;15036;48.094;-1.690;2023-03-15T13:21:35;101110.03;;;21.31;34.32
27613;BME280;15036;48.094;-1.690;2023-03-15T13:24:11;101116.28;;;20.73;34.63
27613;BME280;15036;48.094;-1.690;2023-03-15T13:29:13;101111.69;;;21.06;34.83
27613;BME280;15036;48.094;-1.690;2023-03-15T13:31:42;101114.59;;;21.16;34.43
27613;BME280;15036;48.094;-1.690;2023-03-15T13:34:21;101106.47;;;21.31;34.70
27613;BME280;15036;48.094;-1.690;2023-03-15T13:36:54;101112.44;;;21.44;34.34
27613;BME280;15036;48.094;-1.690;2023-03-15T13:39:32;101109.88;;;20.73;35.19
27613;BME280;15036;48.094;-1.690;2023-03-15T13:42:19;101106.97;;;20.85;35.27
27613;BME280;15036;48.094;-1.690;2023-03-15T13:44:44;101116.41;;;20.84;35.20